sensor_id;sensor_type;location;lat;lon;timestamp;P1;durP1;ratioP1;P2;durP2;ratioP2
49678;SDS011;35570;48.218;16.326;2024-03-08T00:01:47;49.33;;;33.58;;
49678;SDS011;35570;48.218;16.326;2024-03-08T00:04:13;49.92;;;33.20;;
49678;SDS011;35570;48.218;16.326;2024-03-08T00:06:40;51.65;;;33.78;;
49678;SDS011;35570;48.218;16.326;2024-03-08T00:09:06;49.40;;;33.70;;
49678;SDS011;35570;48.218;16.326;2024-03-08T00:11:33;49.67;;;34.22;;
49678;SDS011;35570;48.218;16.326;2024-03-08T00:13:59;47.72;;;32.78;;
49678;SDS011;35570;48.218;16.326;2024-03-08T00:16:27;49.50;;;33.45;;
49678;SDS011;35570;48.218;16.326;2024-03-08T00:18:52;48.83;;;31.85;;
49678;SDS011;35570;48.218;16.326;2024-03-08T00:21:18;41.92;;;31.60;;
49678;SDS011;35570;48.218;16.326;2024-03-08T00:23:43;46.95;;;32.67;;
49678;SDS011;35570;48.218;16.326;2024-03-08T00:26:09;48.75;;;32.70;;
49678;SDS011;35570;48.218;16.326;2024-03-08T00:28:35;48.85;;;33.17;;
49678;SDS011;35570;48.218;16.326;2024-03-08T00:31:01;48.58;;;33.10;;
49678;SDS011;35570;48.218;16.326;2024-03-08T00:33:26;49.55;;;32.08;;
49678;SDS011;35570;48.218;16.326;2024-03-08T00:35:52;46.42;;;33.42;;
49678;SDS011;35570;48.218;16.326;2024-03-08T00:38:18;48.85;;;32.85;;
49678;SDS011;35570;48.218;16.326;2024-03-08T00:40:44;49.58;;;32.17;;
49678;SDS011;35570;48.218;16.326;2024-03-08T00:43:10;50.83;;;33.83;;
49678;SDS011;35570;48.218;16.326;2024-03-08T00:45:36;48.38;;;32.72;;
49678;SDS011;35570;48.218;16.326;2024-03-08T00:48:02;45.40;;;32.03;;
49678;SDS011;35570;48.218;16.326;2024-03-08T00:50:28;48.97;;;33.40;;
49678;SDS011;35570;48.218;16.326;2024-03-08T00:52:54;49.08;;;32.70;;
49678;SDS011;35570;48.218;16.326;2024-03-08T00:55:20;49.13;;;32.63;;
49678;SDS011;35570;48.218;16.326;2024-03-08T00:57:46;49.83;;;34.45;;
49678;SDS011;35570;48.218;16.326;2024-03-08T01:00:11;48.33;;;31.98;;
49678;SDS011;35570;48.218;16.326;2024-03-08T01:02:40;53.85;;;35.75;;
49678;SDS011;35570;48.218;16.326;2024-03-08T01:05:06;47.83;;;33.80;;
49678;SDS011;35570;48.218;16.326;2024-03-08T01:07:32;48.45;;;33.33;;
49678;SDS011;35570;48.218;16.326;2024-03-08T01:10:02;45.78;;;33.03;;
49678;SDS011;35570;48.218;16.326;2024-03-08T01:12:28;49.13;;;34.63;;
49678;SDS011;35570;48.218;16.326;2024-03-08T01:14:54;53.53;;;34.65;;
49678;SDS011;35570;48.218;16.326;2024-03-08T01:17:20;51.55;;;35.35;;
49678;SDS011;35570;48.218;16.326;2024-03-08T01:19:46;48.45;;;34.72;;
49678;SDS011;35570;48.218;16.326;2024-03-08T01:22:12;50.80;;;34.10;;
49678;SDS011;35570;48.218;16.326;2024-03-08T01:24:38;53.67;;;36.00;;
49678;SDS011;35570;48.218;16.326;2024-03-08T01:27:03;58.08;;;35.38;;
49678;SDS011;35570;48.218;16.326;2024-03-08T01:29:29;51.20;;;34.88;;
49678;SDS011;35570;48.218;16.326;2024-03-08T01:31:55;50.70;;;34.35;;
49678;SDS011;35570;48.218;16.326;2024-03-08T01:34:21;51.53;;;34.70;;
49678;SDS011;35570;48.218;16.326;2024-03-08T01:36:47;51.42;;;34.60;;
49678;SDS011;35570;48.218;16.326;2024-03-08T01:39:13;52.53;;;35.17;;
49678;SDS011;35570;48.218;16.326;2024-03-08T01:41:39;49.30;;;34.15;;
49678;SDS011;35570;48.218;16.326;2024-03-08T01:44:05;53.63;;;34.55;;
49678;SDS011;35570;48.218;16.326;2024-03-08T01:46:32;51.75;;;35.60;;
49678;SDS011;35570;48.218;16.326;2024-03-08T01:48:59;50.35;;;34.65;;
49678;SDS011;35570;48.218;16.326;2024-03-08T01:51:26;51.10;;;35.25;;
49678;SDS011;35570;48.218;16.326;2024-03-08T01:53:53;53.25;;;34.80;;
49678;SDS011;35570;48.218;16.326;2024-03-08T01:56:22;55.88;;;36.05;;
49678;SDS011;35570;48.218;16.326;2024-03-08T01:58:50;49.53;;;34.72;;
49678;SDS011;35570;48.218;16.326;2024-03-08T02:01:16;53.85;;;35.88;;
49678;SDS011;35570;48.218;16.326;2024-03-08T02:03:44;53.97;;;35.17;;
49678;SDS011;35570;48.218;16.326;2024-03-08T02:06:13;49.88;;;34.88;;
49678;SDS011;35570;48.218;16.326;2024-03-08T02:08:42;50.88;;;34.63;;
49678;SDS011;35570;48.218;16.326;2024-03-08T02:11:11;54.50;;;35.53;;
49678;SDS011;35570;48.218;16.326;2024-03-08T02:13:38;51.72;;;35.15;;
49678;SDS011;35570;48.218;16.326;2024-03-08T02:16:04;52.80;;;35.28;;
49678;SDS011;35570;48.218;16.326;2024-03-08T02:18:32;53.42;;;35.45;;
49678;SDS011;35570;48.218;16.326;2024-03-08T02:21:00;50.67;;;35.38;;
49678;SDS011;35570;48.218;16.326;2024-03-08T02:23:27;51.20;;;34.75;;
49678;SDS011;35570;48.218;16.326;2024-03-08T02:25:54;53.78;;;35.80;;
49678;SDS011;35570;48.218;16.326;2024-03-08T02:28:21;53.22;;;34.35;;
49678;SDS011;35570;48.218;16.326;2024-03-08T02:30:47;52.00;;;34.97;;
49678;SDS011;35570;48.218;16.326;2024-03-08T02:33:19;48.10;;;34.10;;
49678;SDS011;35570;48.218;16.326;2024-03-08T02:35:45;51.65;;;34.95;;
49678;SDS011;35570;48.218;16.326;2024-03-08T02:38:12;52.03;;;34.53;;
49678;SDS011;35570;48.218;16.326;2024-03-08T02:40:41;51.60;;;35.65;;
49678;SDS011;35570;48.218;16.326;2024-03-08T02:43:08;50.28;;;35.72;;
49678;SDS011;35570;48.218;16.326;2024-03-08T02:45:34;51.47;;;35.22;;
49678;SDS011;35570;48.218;16.326;2024-03-08T02:48:00;55.60;;;36.45;;
49678;SDS011;35570;48.218;16.326;2024-03-08T02:50:25;52.55;;;34.03;;
49678;SDS011;35570;48.218;16.326;2024-03-08T02:52:51;52.53;;;36.10;;
49678;SDS011;35570;48.218;16.326;2024-03-08T02:55:17;51.95;;;34.85;;
49678;SDS011;35570;48.218;16.326;2024-03-08T02:57:43;51.92;;;34.58;;
49678;SDS011;35570;48.218;16.326;2024-03-08T03:00:09;54.58;;;36.58;;
49678;SDS011;35570;48.218;16.326;2024-03-08T03:02:35;55.95;;;36.53;;
49678;SDS011;35570;48.218;16.326;2024-03-08T03:05:02;55.78;;;35.30;;
49678;SDS011;35570;48.218;16.326;2024-03-08T03:07:31;52.10;;;36.25;;
49678;SDS011;35570;48.218;16.326;2024-03-08T03:10:00;56.17;;;36.03;;
49678;SDS011;35570;48.218;16.326;2024-03-08T03:12:29;51.90;;;34.55;;
49678;SDS011;35570;48.218;16.326;2024-03-08T03:14:59;53.03;;;35.53;;
49678;SDS011;35570;48.218;16.326;2024-03-08T03:17:25;51.70;;;34.60;;
49678;SDS011;35570;48.218;16.326;2024-03-08T03:19:54;52.85;;;36.72;;
49678;SDS011;35570;48.218;16.326;2024-03-08T03:22:20;55.10;;;36.15;;
49678;SDS011;35570;48.218;16.326;2024-03-08T03:24:46;54.10;;;35.90;;
49678;SDS011;35570;48.218;16.326;2024-03-08T03:27:12;51.70;;;35.40;;
49678;SDS011;35570;48.218;16.326;2024-03-08T03:29:40;51.38;;;35.78;;
49678;SDS011;35570;48.218;16.326;2024-03-08T03:32:10;54.67;;;36.65;;
49678;SDS011;35570;48.218;16.326;2024-03-08T03:34:37;50.17;;;34.95;;
49678;SDS011;35570;48.218;16.326;2024-03-08T03:37:03;51.20;;;34.90;;
49678;SDS011;35570;48.218;16.326;2024-03-08T03:39:29;56.40;;;37.45;;
49678;SDS011;35570;48.218;16.326;2024-03-08T03:41:59;55.75;;;36.00;;
49678;SDS011;35570;48.218;16.326;2024-03-08T03:44:27;53.30;;;35.95;;
49678;SDS011;35570;48.218;16.326;2024-03-08T03:46:53;50.13;;;34.25;;
49678;SDS011;35570;48.218;16.326;2024-03-08T03:49:18;51.22;;;34.85;;
49678;SDS011;35570;48.218;16.326;2024-03-08T03:51:44;51.70;;;35.33;;
49678;SDS011;35570;48.218;16.326;2024-03-08T03:54:10;53.53;;;35.42;;
49678;SDS011;35570;48.218;16.326;2024-03-08T03:56:37;53.80;;;35.67;;
49678;SDS011;35570;48.218;16.326;2024-03-08T03:59:04;53.60;;;35.35;;
49678;SDS011;35570;48.218;16.326;2024-03-08T04:01:31;55.53;;;36.35;;
49678;SDS011;35570;48.218;16.326;2024-03-08T04:03:57;46.88;;;34.47;;
49678;SDS011;35570;48.218;16.326;2024-03-08T04:06:23;52.70;;;34.83;;
49678;SDS011;35570;48.218;16.326;2024-03-08T04:08:49;49.33;;;34.85;;
49678;SDS011;35570;48.218;16.326;2024-03-08T04:11:14;55.88;;;36.22;;
49678;SDS011;35570;48.218;16.326;2024-03-08T04:13:42;53.03;;;34.72;;
49678;SDS011;35570;48.218;16.326;2024-03-08T04:16:08;52.35;;;35.25;;
49678;SDS011;35570;48.218;16.326;2024-03-08T04:18:36;52.67;;;35.60;;
49678;SDS011;35570;48.218;16.326;2024-03-08T04:21:03;53.15;;;35.97;;
49678;SDS011;35570;48.218;16.326;2024-03-08T04:23:34;51.92;;;35.75;;
49678;SDS011;35570;48.218;16.326;2024-03-08T04:26:01;54.45;;;37.35;;
49678;SDS011;35570;48.218;16.326;2024-03-08T04:28:29;53.45;;;36.17;;
49678;SDS011;35570;48.218;16.326;2024-03-08T04:30:55;55.83;;;36.35;;
49678;SDS011;35570;48.218;16.326;2024-03-08T04:33:20;54.63;;;35.63;;
49678;SDS011;35570;48.218;16.326;2024-03-08T04:35:47;48.55;;;34.45;;
49678;SDS011;35570;48.218;16.326;2024-03-08T04:38:13;55.30;;;35.08;;
49678;SDS011;35570;48.218;16.326;2024-03-08T04:40:38;50.55;;;35.38;;
49678;SDS011;35570;48.218;16.326;2024-03-08T04:43:04;53.92;;;36.15;;
49678;SDS011;35570;48.218;16.326;2024-03-08T04:45:30;54.90;;;36.72;;
49678;SDS011;35570;48.218;16.326;2024-03-08T04:47:56;52.42;;;35.20;;
49678;SDS011;35570;48.218;16.326;2024-03-08T04:50:21;51.55;;;34.88;;
49678;SDS011;35570;48.218;16.326;2024-03-08T04:52:47;51.88;;;35.40;;
49678;SDS011;35570;48.218;16.326;2024-03-08T04:55:13;51.85;;;35.40;;
49678;SDS011;35570;48.218;16.326;2024-03-08T04:57:39;46.67;;;33.35;;
49678;SDS011;35570;48.218;16.326;2024-03-08T05:00:05;47.50;;;34.30;;
49678;SDS011;35570;48.218;16.326;2024-03-08T05:02:36;46.55;;;33.45;;
49678;SDS011;35570;48.218;16.326;2024-03-08T05:05:04;47.10;;;33.03;;
49678;SDS011;35570;48.218;16.326;2024-03-08T05:07:31;50.58;;;35.58;;
49678;SDS011;35570;48.218;16.326;2024-03-08T05:09:58;50.63;;;34.70;;
49678;SDS011;35570;48.218;16.326;2024-03-08T05:12:24;52.42;;;35.80;;
49678;SDS011;35570;48.218;16.326;2024-03-08T05:14:49;50.45;;;34.33;;
49678;SDS011;35570;48.218;16.326;2024-03-08T05:17:15;51.20;;;34.42;;
49678;SDS011;35570;48.218;16.326;2024-03-08T05:19:44;48.08;;;34.58;;
49678;SDS011;35570;48.218;16.326;2024-03-08T05:22:10;50.42;;;34.83;;
49678;SDS011;35570;48.218;16.326;2024-03-08T05:24:36;54.85;;;36.28;;
49678;SDS011;35570;48.218;16.326;2024-03-08T05:27:01;54.15;;;36.13;;
49678;SDS011;35570;48.218;16.326;2024-03-08T05:29:28;52.03;;;35.30;;
49678;SDS011;35570;48.218;16.326;2024-03-08T05:31:54;53.80;;;35.67;;
49678;SDS011;35570;48.218;16.326;2024-03-08T05:34:20;55.47;;;37.35;;
49678;SDS011;35570;48.218;16.326;2024-03-08T05:36:47;51.35;;;34.65;;
49678;SDS011;35570;48.218;16.326;2024-03-08T05:39:16;50.05;;;34.92;;
49678;SDS011;35570;48.218;16.326;2024-03-08T05:41:42;51.47;;;36.58;;
49678;SDS011;35570;48.218;16.326;2024-03-08T05:44:08;53.42;;;35.92;;
49678;SDS011;35570;48.218;16.326;2024-03-08T05:46:35;52.42;;;36.08;;
49678;SDS011;35570;48.218;16.326;2024-03-08T05:49:08;47.72;;;34.25;;
49678;SDS011;35570;48.218;16.326;2024-03-08T05:51:35;52.20;;;35.87;;
49678;SDS011;35570;48.218;16.326;2024-03-08T05:54:06;49.85;;;34.65;;
49678;SDS011;35570;48.218;16.326;2024-03-08T05:56:34;54.47;;;36.13;;
49678;SDS011;35570;48.218;16.326;2024-03-08T05:59:01;53.60;;;35.15;;
49678;SDS011;35570;48.218;16.326;2024-03-08T06:01:27;53.75;;;37.53;;
49678;SDS011;35570;48.218;16.326;2024-03-08T06:03:53;53.58;;;36.03;;
49678;SDS011;35570;48.218;16.326;2024-03-08T06:06:21;56.13;;;37.53;;
49678;SDS011;35570;48.218;16.326;2024-03-08T06:08:50;55.35;;;36.10;;
49678;SDS011;35570;48.218;16.326;2024-03-08T06:11:16;51.13;;;36.60;;
49678;SDS011;35570;48.218;16.326;2024-03-08T06:13:43;52.97;;;37.40;;
49678;SDS011;35570;48.218;16.326;2024-03-08T06:16:09;54.33;;;37.17;;
49678;SDS011;35570;48.218;16.326;2024-03-08T06:18:35;54.75;;;36.60;;
49678;SDS011;35570;48.218;16.326;2024-03-08T06:21:12;51.78;;;36.30;;
49678;SDS011;35570;48.218;16.326;2024-03-08T06:23:37;54.22;;;36.15;;
49678;SDS011;35570;48.218;16.326;2024-03-08T06:26:09;54.38;;;36.55;;
49678;SDS011;35570;48.218;16.326;2024-03-08T06:28:35;47.03;;;34.83;;
49678;SDS011;35570;48.218;16.326;2024-03-08T06:31:01;57.30;;;36.83;;
49678;SDS011;35570;48.218;16.326;2024-03-08T06:33:27;51.95;;;35.58;;
49678;SDS011;35570;48.218;16.326;2024-03-08T06:35:54;54.92;;;37.88;;
49678;SDS011;35570;48.218;16.326;2024-03-08T06:38:22;55.20;;;38.28;;
49678;SDS011;35570;48.218;16.326;2024-03-08T06:40:51;50.72;;;37.40;;
49678;SDS011;35570;48.218;16.326;2024-03-08T06:43:18;56.47;;;37.40;;
49678;SDS011;35570;48.218;16.326;2024-03-08T06:45:44;51.47;;;36.90;;
49678;SDS011;35570;48.218;16.326;2024-03-08T06:48:33;53.50;;;35.65;;
49678;SDS011;35570;48.218;16.326;2024-03-08T06:51:00;53.88;;;36.95;;
49678;SDS011;35570;48.218;16.326;2024-03-08T06:53:25;56.83;;;38.65;;
49678;SDS011;35570;48.218;16.326;2024-03-08T06:55:51;58.50;;;39.17;;
49678;SDS011;35570;48.218;16.326;2024-03-08T06:58:17;55.42;;;38.67;;
49678;SDS011;35570;48.218;16.326;2024-03-08T07:00:42;53.92;;;36.83;;
49678;SDS011;35570;48.218;16.326;2024-03-08T07:03:09;52.00;;;38.17;;
49678;SDS011;35570;48.218;16.326;2024-03-08T07:05:37;52.67;;;37.17;;
49678;SDS011;35570;48.218;16.326;2024-03-08T07:08:03;53.53;;;36.83;;
49678;SDS011;35570;48.218;16.326;2024-03-08T07:10:29;56.30;;;38.83;;
49678;SDS011;35570;48.218;16.326;2024-03-08T07:12:54;51.90;;;36.83;;
49678;SDS011;35570;48.218;16.326;2024-03-08T07:15:20;52.75;;;35.22;;
49678;SDS011;35570;48.218;16.326;2024-03-08T07:17:46;50.63;;;36.40;;
49678;SDS011;35570;48.218;16.326;2024-03-08T07:20:12;47.83;;;35.88;;
49678;SDS011;35570;48.218;16.326;2024-03-08T07:22:40;55.75;;;38.70;;
49678;SDS011;35570;48.218;16.326;2024-03-08T07:25:06;51.05;;;35.13;;
49678;SDS011;35570;48.218;16.326;2024-03-08T07:27:48;53.70;;;35.47;;
49678;SDS011;35570;48.218;16.326;2024-03-08T07:30:19;52.97;;;35.50;;
49678;SDS011;35570;48.218;16.326;2024-03-08T07:33:04;50.80;;;36.65;;
49678;SDS011;35570;48.218;16.326;2024-03-08T07:35:32;51.58;;;36.58;;
49678;SDS011;35570;48.218;16.326;2024-03-08T07:37:58;52.40;;;37.00;;
49678;SDS011;35570;48.218;16.326;2024-03-08T07:40:25;52.78;;;35.72;;
49678;SDS011;35570;48.218;16.326;2024-03-08T07:42:51;55.90;;;36.75;;
49678;SDS011;35570;48.218;16.326;2024-03-08T07:45:17;48.50;;;34.83;;
49678;SDS011;35570;48.218;16.326;2024-03-08T07:47:42;50.80;;;36.40;;
49678;SDS011;35570;48.218;16.326;2024-03-08T07:50:08;49.28;;;36.90;;
49678;SDS011;35570;48.218;16.326;2024-03-08T07:52:34;52.15;;;36.83;;
49678;SDS011;35570;48.218;16.326;2024-03-08T07:55:01;51.78;;;36.83;;
49678;SDS011;35570;48.218;16.326;2024-03-08T07:57:30;55.70;;;37.70;;
49678;SDS011;35570;48.218;16.326;2024-03-08T07:59:56;55.55;;;37.08;;
49678;SDS011;35570;48.218;16.326;2024-03-08T08:02:23;52.53;;;36.28;;
49678;SDS011;35570;48.218;16.326;2024-03-08T08:04:48;50.85;;;36.33;;
49678;SDS011;35570;48.218;16.326;2024-03-08T08:07:14;54.03;;;36.45;;
49678;SDS011;35570;48.218;16.326;2024-03-08T08:09:40;51.30;;;35.50;;
49678;SDS011;35570;48.218;16.326;2024-03-08T08:12:07;53.33;;;36.47;;
49678;SDS011;35570;48.218;16.326;2024-03-08T08:14:40;49.53;;;34.95;;
49678;SDS011;35570;48.218;16.326;2024-03-08T08:17:06;54.58;;;35.97;;
49678;SDS011;35570;48.218;16.326;2024-03-08T08:19:33;53.50;;;37.33;;
49678;SDS011;35570;48.218;16.326;2024-03-08T08:22:00;61.03;;;40.80;;
49678;SDS011;35570;48.218;16.326;2024-03-08T08:24:28;58.55;;;39.78;;
49678;SDS011;35570;48.218;16.326;2024-03-08T08:26:54;63.63;;;41.05;;
49678;SDS011;35570;48.218;16.326;2024-03-08T08:29:20;62.05;;;40.22;;
49678;SDS011;35570;48.218;16.326;2024-03-08T08:31:47;56.15;;;37.30;;
49678;SDS011;35570;48.218;16.326;2024-03-08T08:34:12;59.78;;;39.10;;
49678;SDS011;35570;48.218;16.326;2024-03-08T08:36:38;59.58;;;37.10;;
49678;SDS011;35570;48.218;16.326;2024-03-08T08:39:05;61.22;;;38.78;;
49678;SDS011;35570;48.218;16.326;2024-03-08T08:41:37;61.92;;;38.33;;
49678;SDS011;35570;48.218;16.326;2024-03-08T08:44:03;60.42;;;38.67;;
49678;SDS011;35570;48.218;16.326;2024-03-08T08:46:28;59.55;;;38.03;;
49678;SDS011;35570;48.218;16.326;2024-03-08T08:48:54;64.78;;;40.17;;
49678;SDS011;35570;48.218;16.326;2024-03-08T08:51:20;64.57;;;39.25;;
49678;SDS011;35570;48.218;16.326;2024-03-08T08:53:46;66.95;;;39.67;;
49678;SDS011;35570;48.218;16.326;2024-03-08T08:56:13;70.15;;;40.33;;
49678;SDS011;35570;48.218;16.326;2024-03-08T08:58:44;70.55;;;40.85;;
49678;SDS011;35570;48.218;16.326;2024-03-08T09:01:10;68.65;;;40.58;;
49678;SDS011;35570;48.218;16.326;2024-03-08T09:03:36;74.00;;;42.58;;
49678;SDS011;35570;48.218;16.326;2024-03-08T09:06:05;72.95;;;42.55;;
49678;SDS011;35570;48.218;16.326;2024-03-08T09:08:35;67.13;;;39.10;;
49678;SDS011;35570;48.218;16.326;2024-03-08T09:11:01;79.30;;;43.42;;
49678;SDS011;35570;48.218;16.326;2024-03-08T09:13:26;86.43;;;44.20;;
49678;SDS011;35570;48.218;16.326;2024-03-08T09:15:52;77.35;;;43.17;;
49678;SDS011;35570;48.218;16.326;2024-03-08T09:18:18;75.40;;;41.78;;
49678;SDS011;35570;48.218;16.326;2024-03-08T09:20:44;76.25;;;42.10;;
49678;SDS011;35570;48.218;16.326;2024-03-08T09:23:10;75.93;;;41.72;;
49678;SDS011;35570;48.218;16.326;2024-03-08T09:25:35;79.43;;;42.00;;
49678;SDS011;35570;48.218;16.326;2024-03-08T09:28:01;76.47;;;41.03;;
49678;SDS011;35570;48.218;16.326;2024-03-08T09:30:27;75.25;;;39.67;;
49678;SDS011;35570;48.218;16.326;2024-03-08T09:32:53;74.78;;;39.10;;
49678;SDS011;35570;48.218;16.326;2024-03-08T09:35:19;72.10;;;39.33;;
49678;SDS011;35570;48.218;16.326;2024-03-08T09:37:45;68.15;;;37.72;;
49678;SDS011;35570;48.218;16.326;2024-03-08T09:40:12;77.32;;;39.28;;
49678;SDS011;35570;48.218;16.326;2024-03-08T09:42:40;70.88;;;39.13;;
49678;SDS011;35570;48.218;16.326;2024-03-08T09:45:10;69.47;;;38.42;;
49678;SDS011;35570;48.218;16.326;2024-03-08T09:47:40;69.75;;;38.28;;
49678;SDS011;35570;48.218;16.326;2024-03-08T09:50:07;72.30;;;40.60;;
49678;SDS011;35570;48.218;16.326;2024-03-08T09:52:35;68.20;;;38.50;;
49678;SDS011;35570;48.218;16.326;2024-03-08T09:55:02;65.05;;;37.85;;
49678;SDS011;35570;48.218;16.326;2024-03-08T09:57:32;69.35;;;39.35;;
49678;SDS011;35570;48.218;16.326;2024-03-08T09:59:59;71.07;;;40.00;;
49678;SDS011;35570;48.218;16.326;2024-03-08T10:02:24;68.60;;;38.03;;
49678;SDS011;35570;48.218;16.326;2024-03-08T10:04:51;67.53;;;37.80;;
49678;SDS011;35570;48.218;16.326;2024-03-08T10:07:18;66.32;;;37.50;;
49678;SDS011;35570;48.218;16.326;2024-03-08T10:09:44;63.85;;;37.17;;
49678;SDS011;35570;48.218;16.326;2024-03-08T10:12:15;62.25;;;35.80;;
49678;SDS011;35570;48.218;16.326;2024-03-08T10:14:42;60.88;;;34.47;;
49678;SDS011;35570;48.218;16.326;2024-03-08T10:17:08;58.40;;;32.80;;
49678;SDS011;35570;48.218;16.326;2024-03-08T10:19:34;66.38;;;37.10;;
49678;SDS011;35570;48.218;16.326;2024-03-08T10:22:00;65.63;;;37.50;;
49678;SDS011;35570;48.218;16.326;2024-03-08T10:24:25;55.33;;;32.15;;
49678;SDS011;35570;48.218;16.326;2024-03-08T10:26:52;55.83;;;32.08;;
49678;SDS011;35570;48.218;16.326;2024-03-08T10:29:31;48.10;;;29.20;;
49678;SDS011;35570;48.218;16.326;2024-03-08T10:31:57;42.83;;;26.95;;
49678;SDS011;35570;48.218;16.326;2024-03-08T10:34:23;44.05;;;27.13;;
49678;SDS011;35570;48.218;16.326;2024-03-08T10:36:49;42.65;;;26.70;;
49678;SDS011;35570;48.218;16.326;2024-03-08T10:39:23;43.40;;;26.13;;
49678;SDS011;35570;48.218;16.326;2024-03-08T10:41:54;42.80;;;26.83;;
49678;SDS011;35570;48.218;16.326;2024-03-08T10:44:26;43.78;;;26.77;;
49678;SDS011;35570;48.218;16.326;2024-03-08T10:49:37;42.33;;;26.15;;
49678;SDS011;35570;48.218;16.326;2024-03-08T10:52:08;44.67;;;25.80;;
49678;SDS011;35570;48.218;16.326;2024-03-08T10:54:37;40.17;;;24.95;;
49678;SDS011;35570;48.218;16.326;2024-03-08T10:57:05;42.90;;;25.85;;
49678;SDS011;35570;48.218;16.326;2024-03-08T10:59:33;37.10;;;23.48;;
49678;SDS011;35570;48.218;16.326;2024-03-08T11:01:59;40.03;;;26.55;;
49678;SDS011;35570;48.218;16.326;2024-03-08T11:04:25;37.97;;;24.42;;
49678;SDS011;35570;48.218;16.326;2024-03-08T11:06:53;31.77;;;21.25;;
49678;SDS011;35570;48.218;16.326;2024-03-08T11:09:31;35.83;;;21.50;;
49678;SDS011;35570;48.218;16.326;2024-03-08T11:15:00;30.02;;;20.83;;
49678;SDS011;35570;48.218;16.326;2024-03-08T11:20:04;30.75;;;21.63;;
49678;SDS011;35570;48.218;16.326;2024-03-08T11:22:49;30.05;;;20.30;;
49678;SDS011;35570;48.218;16.326;2024-03-08T11:25:34;27.88;;;18.33;;
49678;SDS011;35570;48.218;16.326;2024-03-08T11:28:15;22.70;;;15.55;;
49678;SDS011;35570;48.218;16.326;2024-03-08T11:31:28;22.70;;;15.40;;
49678;SDS011;35570;48.218;16.326;2024-03-08T11:33:29;20.52;;;15.02;;
49678;SDS011;35570;48.218;16.326;2024-03-08T11:38:28;16.23;;;10.75;;
49678;SDS011;35570;48.218;16.326;2024-03-08T11:40:57;18.17;;;10.50;;
49678;SDS011;35570;48.218;16.326;2024-03-08T11:43:22;15.07;;;9.75;;
49678;SDS011;35570;48.218;16.326;2024-03-08T11:45:49;14.75;;;10.00;;
49678;SDS011;35570;48.218;16.326;2024-03-08T11:48:15;14.50;;;10.63;;
49678;SDS011;35570;48.218;16.326;2024-03-08T11:50:41;13.98;;;9.98;;
49678;SDS011;35570;48.218;16.326;2024-03-08T11:53:08;16.10;;;10.50;;
49678;SDS011;35570;48.218;16.326;2024-03-08T11:55:34;17.38;;;10.73;;
49678;SDS011;35570;48.218;16.326;2024-03-08T11:58:04;14.48;;;10.55;;
49678;SDS011;35570;48.218;16.326;2024-03-08T12:00:30;14.13;;;10.13;;
49678;SDS011;35570;48.218;16.326;2024-03-08T12:03:06;17.53;;;11.13;;
49678;SDS011;35570;48.218;16.326;2024-03-08T12:05:34;16.10;;;11.00;;
49678;SDS011;35570;48.218;16.326;2024-03-08T12:08:01;17.27;;;11.60;;
49678;SDS011;35570;48.218;16.326;2024-03-08T12:10:28;16.38;;;11.70;;
49678;SDS011;35570;48.218;16.326;2024-03-08T12:12:54;16.83;;;12.20;;
49678;SDS011;35570;48.218;16.326;2024-03-08T12:15:24;21.52;;;15.98;;
49678;SDS011;35570;48.218;16.326;2024-03-08T12:17:51;19.48;;;13.32;;
49678;SDS011;35570;48.218;16.326;2024-03-08T12:22:55;21.25;;;13.73;;
49678;SDS011;35570;48.218;16.326;2024-03-08T12:25:30;19.33;;;12.73;;
49678;SDS011;35570;48.218;16.326;2024-03-08T12:27:56;18.45;;;12.88;;
49678;SDS011;35570;48.218;16.326;2024-03-08T12:30:31;18.02;;;13.13;;
49678;SDS011;35570;48.218;16.326;2024-03-08T12:32:59;20.45;;;13.57;;
49678;SDS011;35570;48.218;16.326;2024-03-08T12:35:29;18.90;;;13.35;;
49678;SDS011;35570;48.218;16.326;2024-03-08T12:37:57;18.67;;;13.38;;
49678;SDS011;35570;48.218;16.326;2024-03-08T12:40:31;18.92;;;13.40;;
49678;SDS011;35570;48.218;16.326;2024-03-08T12:42:59;19.27;;;14.60;;
49678;SDS011;35570;48.218;16.326;2024-03-08T12:45:25;21.35;;;14.55;;
49678;SDS011;35570;48.218;16.326;2024-03-08T12:47:52;19.58;;;13.85;;
49678;SDS011;35570;48.218;16.326;2024-03-08T12:50:18;19.92;;;14.48;;
49678;SDS011;35570;48.218;16.326;2024-03-08T12:52:44;19.60;;;14.52;;
49678;SDS011;35570;48.218;16.326;2024-03-08T12:55:10;22.05;;;13.85;;
49678;SDS011;35570;48.218;16.326;2024-03-08T12:57:36;18.92;;;13.88;;
49678;SDS011;35570;48.218;16.326;2024-03-08T13:00:03;19.27;;;13.70;;
49678;SDS011;35570;48.218;16.326;2024-03-08T13:02:30;18.50;;;13.90;;
49678;SDS011;35570;48.218;16.326;2024-03-08T13:04:58;20.80;;;13.48;;
49678;SDS011;35570;48.218;16.326;2024-03-08T13:07:24;17.55;;;12.63;;
49678;SDS011;35570;48.218;16.326;2024-03-08T13:09:54;19.27;;;13.63;;
49678;SDS011;35570;48.218;16.326;2024-03-08T13:12:23;18.85;;;13.23;;
49678;SDS011;35570;48.218;16.326;2024-03-08T13:14:49;15.80;;;12.52;;
49678;SDS011;35570;48.218;16.326;2024-03-08T13:17:15;18.00;;;12.32;;
49678;SDS011;35570;48.218;16.326;2024-03-08T13:19:41;15.63;;;11.73;;
49678;SDS011;35570;48.218;16.326;2024-03-08T13:22:07;19.92;;;12.45;;
49678;SDS011;35570;48.218;16.326;2024-03-08T13:24:43;15.32;;;11.40;;
49678;SDS011;35570;48.218;16.326;2024-03-08T13:27:10;17.42;;;11.75;;
49678;SDS011;35570;48.218;16.326;2024-03-08T13:29:47;16.13;;;11.75;;
49678;SDS011;35570;48.218;16.326;2024-03-08T13:32:16;15.65;;;11.80;;
49678;SDS011;35570;48.218;16.326;2024-03-08T13:34:42;14.70;;;11.02;;
49678;SDS011;35570;48.218;16.326;2024-03-08T13:39:58;14.20;;;10.93;;
49678;SDS011;35570;48.218;16.326;2024-03-08T13:42:24;14.70;;;10.77;;
49678;SDS011;35570;48.218;16.326;2024-03-08T13:44:49;16.23;;;11.30;;
49678;SDS011;35570;48.218;16.326;2024-03-08T13:47:18;13.48;;;10.80;;
49678;SDS011;35570;48.218;16.326;2024-03-08T13:49:44;14.98;;;11.40;;
49678;SDS011;35570;48.218;16.326;2024-03-08T13:52:10;14.40;;;11.90;;
49678;SDS011;35570;48.218;16.326;2024-03-08T13:54:37;16.25;;;12.00;;
49678;SDS011;35570;48.218;16.326;2024-03-08T13:57:03;16.48;;;11.68;;
49678;SDS011;35570;48.218;16.326;2024-03-08T13:59:30;17.30;;;12.38;;
49678;SDS011;35570;48.218;16.326;2024-03-08T14:01:58;16.23;;;11.40;;
49678;SDS011;35570;48.218;16.326;2024-03-08T14:04:30;13.85;;;10.77;;
49678;SDS011;35570;48.218;16.326;2024-03-08T14:06:56;14.88;;;11.48;;
49678;SDS011;35570;48.218;16.326;2024-03-08T14:09:25;15.30;;;11.80;;
49678;SDS011;35570;48.218;16.326;2024-03-08T14:11:54;14.15;;;10.63;;
49678;SDS011;35570;48.218;16.326;2024-03-08T14:14:21;16.52;;;12.23;;
49678;SDS011;35570;48.218;16.326;2024-03-08T14:16:50;15.60;;;11.88;;
49678;SDS011;35570;48.218;16.326;2024-03-08T14:19:20;15.05;;;11.70;;
49678;SDS011;35570;48.218;16.326;2024-03-08T14:21:46;18.50;;;12.50;;
49678;SDS011;35570;48.218;16.326;2024-03-08T14:24:14;20.48;;;13.05;;
49678;SDS011;35570;48.218;16.326;2024-03-08T14:26:41;16.23;;;12.30;;